Time;durP1;ratioP1;P1;durP2;ratioP2;P2;SDS_P1;SDS_P2;PMS_P1;PMS_P2;Temp;Humidity;BMP_temperature;BMP_pressure;BME280_temperature;BME280_humidity;BME280_pressure;Samples;Min_cycle;Max_cycle;Signal;HPM_P1;HPM_P2
2022/07/29 00:00:03;;;;;;;9.45;7.20;;;;;;;22.47;nan;100456.94;5011717;28;20034;-68
2022/07/29 00:02:28;;;;;;;11.50;7.70;;;;;;;22.45;nan;100459.91;5009409;28;20026;-68
2022/07/29 00:04:53;;;;;;;12.23;7.25;;;;;;;22.49;nan;100446.69;5011918;28;20026;-68
2022/07/29 00:07:19;;;;;;;12.45;7.53;;;;;;;22.44;nan;100449.50;5009042;28;20030;-70
2022/07/29 00:09:44;;;;;;;14.70;7.43;;;;;;;22.40;nan;100470.75;5011525;28;20480;-68
2022/07/29 00:12:10;;;;;;;9.50;7.60;;;;;;;22.40;nan;100462.69;5007747;28;20444;-68
2022/07/29 00:14:35;;;;;;;11.60;7.40;;;;;;;22.37;nan;100462.53;5010060;28;20037;-69
2022/07/29 00:17:01;;;;;;;9.68;6.90;;;;;;;22.39;nan;100465.72;5008366;28;20030;-68
2022/07/29 00:19:26;;;;;;;9.63;7.20;;;;;;;22.35;nan;100422.56;5009438;28;20048;-67
2022/07/29 00:21:52;;;;;;;14.50;7.78;;;;;;;22.36;nan;100458.25;5007879;28;20095;-68
2022/07/29 00:24:17;;;;;;;9.68;7.72;;;;;;;22.39;nan;100438.88;5009539;28;20050;-68
2022/07/29 00:26:43;;;;;;;10.70;7.55;;;;;;;22.34;nan;100439.78;5005140;28;20396;-68
2022/07/29 00:29:08;;;;;;;9.80;7.43;;;;;;;22.38;nan;100448.00;5007264;28;20034;-67
2022/07/29 00:31:33;;;;;;;12.80;7.75;;;;;;;22.37;nan;100516.19;5004348;28;20103;-68
2022/07/29 00:33:59;;;;;;;11.27;7.03;;;;;;;22.32;nan;100425.88;5011657;28;20125;-69
2022/07/29 00:36:24;;;;;;;10.32;7.88;;;;;;;22.29;nan;100446.06;5007336;28;20124;-70
2022/07/29 00:38:51;;;;;;;10.57;7.43;;;;;;;22.26;nan;100451.22;5010893;28;20522;-70
2022/07/29 00:41:17;;;;;;;12.85;7.55;;;;;;;22.24;nan;100432.75;5005734;28;20030;-69
2022/07/29 00:43:43;;;;;;;9.73;6.97;;;;;;;22.21;nan;100435.22;5012833;28;20147;-69
2022/07/29 00:46:09;;;;;;;9.80;8.05;;;;;;;22.20;nan;100449.72;5008593;28;20060;-67
2022/07/29 00:48:35;;;;;;;10.70;7.90;;;;;;;22.11;nan;100471.09;5010665;28;20464;-69
2022/07/29 00:51:02;;;;;;;11.82;7.57;;;;;;;22.12;nan;100451.19;5012882;28;20042;-68
2022/07/29 00:53:29;;;;;;;9.60;7.70;;;;;;;22.04;nan;100427.78;5009493;28;20061;-69
2022/07/29 00:55:55;;;;;;;9.68;7.60;;;;;;;21.98;nan;100418.25;5009191;28;20030;-68
2022/07/29 00:58:21;;;;;;;9.02;7.30;;;;;;;21.91;nan;100434.78;5007817;28;20034;-68
2022/07/29 01:00:46;;;;;;;11.00;8.30;;;;;;;21.85;nan;100423.34;5012222;28;20108;-71
2022/07/29 01:03:12;;;;;;;12.65;7.93;;;;;;;21.80;nan;100410.03;5010707;28;20365;-70
2022/07/29 01:05:40;;;;;;;12.10;8.07;;;;;;;21.85;nan;100423.34;5011283;28;20045;-72
2022/07/29 01:08:06;;;;;;;9.10;7.65;;;;;;;21.80;nan;100418.09;5008969;28;20477;-70
2022/07/29 01:10:33;;;;;;;13.05;8.27;;;;;;;21.80;nan;100444.09;5012046;28;20061;-72
2022/07/29 01:12:58;;;;;;;10.60;7.32;;;;;;;;;;5010153;28;20136;-70
2022/07/29 01:15:24;;;;;;;12.95;8.25;;;;;;;21.77;nan;100424.06;5008686;28;20116;-71
2022/07/29 01:17:53;;;;;;;12.40;7.75;;;;;;;21.79;nan;100413.84;5011295;28;20124;-72
2022/07/29 01:20:25;;;;;;;;;;;;;;;21.75;nan;100402.13;5012384;28;20034;-71
2022/07/29 01:23:05;;;;;;;12.13;8.20;;;;;;;21.75;nan;100431.59;5006783;28;20007;-67
2022/07/29 01:25:58;;;;;;;14.02;7.70;;;;;;;21.74;nan;100399.72;5006270;28;20716;-67
2022/07/29 01:28:57;;;;;;;13.18;7.57;;;;;;;21.72;nan;100397.34;5003407;28;20035;-68
2022/07/29 01:31:47;;;;;;;11.48;7.95;;;;;;;21.65;nan;100464.75;5005541;28;20046;-68
2022/07/29 01:34:21;;;;;;;18.08;8.10;;;;;;;21.64;nan;100333.72;5004276;28;20121;-68
2022/07/29 01:37:10;;;;;;;19.08;8.63;;;;;;;21.58;nan;100399.25;5007758;28;20404;-68
2022/07/29 01:39:38;;;;;;;18.48;9.10;;;;;;;21.53;nan;100399.34;5021138;28;20038;-68
2022/07/29 01:42:12;;;;;;;19.08;8.50;;;;;;;21.50;nan;100399.94;5009590;28;20426;-68
2022/07/29 01:44:45;;;;;;;13.30;7.60;;;;;;;21.47;nan;100393.28;5008289;28;20045;-68
2022/07/29 01:47:14;;;;;;;15.30;8.57;;;;;;;21.41;nan;100375.75;5009403;28;20034;-67
2022/07/29 01:49:46;;;;;;;12.50;8.07;;;;;;;21.45;nan;100396.28;5009973;28;20034;-68
2022/07/29 01:52:21;;;;;;;20.90;8.80;;;;;;;21.37;nan;100402.28;5003595;28;20699;-68
2022/07/29 01:54:53;;;;;;;17.63;8.77;;;;;;;;;;5007953;28;20048;-68
2022/07/29 01:57:25;;;;;;;15.13;9.32;;;;;;;21.20;nan;100400.19;5008850;28;20121;-68
2022/07/29 01:59:52;;;;;;;14.05;8.82;;;;;;;21.06;nan;100386.00;5014964;28;20409;-68
2022/07/29 02:02:18;;;;;;;18.70;9.23;;;;;;;21.03;nan;100403.44;5003110;28;20030;-69
2022/07/29 02:04:48;;;;;;;19.83;10.10;;;;;;;20.94;nan;100381.09;5007930;28;20041;-68
2022/07/29 02:07:17;;;;;;;20.73;9.20;;;;;;;20.91;nan;100392.41;5009148;28;20022;-68
2022/07/29 02:09:45;;;;;;;12.70;9.80;;;;;;;20.91;nan;100396.97;5006614;28;20048;-67
2022/07/29 02:12:11;;;;;;;13.50;9.07;;;;;;;;;;5009870;28;20029;-68
2022/07/29 02:14:43;;;;;;;22.50;9.90;;;;;;;20.84;nan;100397.34;5007894;28;20425;-68
2022/07/29 02:17:12;;;;;;;12.43;9.73;;;;;;;20.81;nan;100385.34;5006699;28;20142;-68
2022/07/29 02:19:39;;;;;;;12.95;9.20;;;;;;;20.85;nan;100396.25;5004626;28;20033;-68
2022/07/29 02:22:06;;;;;;;18.83;9.32;;;;;;;20.82;nan;100388.81;5006163;28;20038;-67
2022/07/29 02:24:35;;;;;;;14.30;9.25;;;;;;;20.74;nan;100394.84;5000858;28;20065;-68
2022/07/29 02:27:02;;;;;;;18.25;10.02;;;;;;;20.72;nan;100397.03;5004373;28;20083;-69
2022/07/29 02:29:29;;;;;;;13.07;9.43;;;;;;;20.72;nan;100410.41;5007146;28;20185;-69
2022/07/29 02:31:55;;;;;;;15.73;11.13;;;;;;;;;;5006642;28;20508;-68
2022/07/29 02:34:21;;;;;;;20.58;9.95;;;;;;;20.62;nan;100392.63;5003135;28;20039;-69
2022/07/29 02:36:49;;;;;;;21.63;10.30;;;;;;;20.59;nan;100444.03;5007258;28;20033;-68
2022/07/29 02:39:15;;;;;;;14.15;9.23;;;;;;;20.62;nan;100414.03;5004591;28;20030;-68
2022/07/29 02:41:48;;;;;;;17.00;9.20;;;;;;;20.58;nan;100467.31;5004453;28;20052;-69
2022/07/29 02:44:17;;;;;;;15.13;9.65;;;;;;;20.64;nan;100416.41;5001533;28;20496;-68
2022/07/29 02:46:53;;;;;;;13.83;9.77;;;;;;;20.58;nan;100389.72;5004776;28;20049;-69
2022/07/29 02:49:30;;;;;;;14.02;10.48;;;;;;;20.59;nan;100411.91;5007399;28;20038;-68
2022/07/29 02:52:02;;;;;;;21.13;11.07;;;;;;;20.58;nan;100413.03;5003564;28;20033;-69
2022/07/29 02:54:39;;;;;;;15.13;9.82;;;;;;;20.57;nan;100419.47;5008806;28;20037;-68
2022/07/29 02:57:13;;;;;;;13.65;10.77;;;;;;;20.51;nan;100418.69;5000759;28;20101;-68
2022/07/29 02:59:43;;;;;;;15.75;9.90;;;;;;;20.33;nan;100449.72;5004282;28;20041;-68
2022/07/29 03:02:11;;;;;;;22.02;10.65;;;;;;;20.34;nan;100405.06;5004483;28;20030;-69
2022/07/29 03:04:39;;;;;;;11.48;10.10;;;;;;;20.19;nan;100440.84;5005335;28;20036;-69
2022/07/29 03:07:05;;;;;;;12.60;10.57;;;;;;;20.09;nan;100404.34;5008853;28;20392;-69
2022/07/29 03:09:31;;;;;;;15.48;10.43;;;;;;;20.08;nan;100410.75;5008030;28;20026;-69
2022/07/29 03:11:57;;;;;;;17.00;10.95;;;;;;;19.95;nan;100393.56;5006357;28;20069;-69
2022/07/29 03:14:23;;;;;;;15.98;10.57;;;;;;;19.95;nan;100404.25;5008098;28;20049;-69
2022/07/29 03:16:51;;;;;;;14.25;10.95;;;;;;;19.98;nan;100386.84;5007728;28;20056;-69
2022/07/29 03:19:17;;;;;;;15.50;10.82;;;;;;;19.94;nan;100420.56;5005304;28;20062;-69
2022/07/29 03:21:42;;;;;;;11.88;10.60;;;;;;;19.91;nan;100415.78;5007808;28;20034;-69
2022/07/29 03:24:08;;;;;;;15.30;10.55;;;;;;;19.93;nan;100422.44;5007064;28;20064;-68
2022/07/29 03:26:33;;;;;;;12.82;10.75;;;;;;;19.91;nan;100426.50;5002972;28;20480;-69
2022/07/29 03:28:59;;;;;;;16.90;10.63;;;;;;;19.91;nan;100424.59;5007022;28;20121;-68
2022/07/29 03:31:25;;;;;;;16.08;10.70;;;;;;;19.88;nan;100416.38;5001894;28;20041;-69
2022/07/29 03:33:50;;;;;;;11.68;10.35;;;;;;;19.89;nan;100413.41;5009090;28;20908;-68
2022/07/29 03:36:16;;;;;;;14.93;11.32;;;;;;;19.95;nan;100419.50;5002952;28;20523;-68
2022/07/29 03:38:44;;;;;;;16.55;10.65;;;;;;;19.92;nan;100415.53;5006949;28;20034;-68
2022/07/29 03:41:11;;;;;;;15.32;11.30;;;;;;;19.93;nan;100485.81;5007788;28;20026;-69
2022/07/29 03:43:40;;;;;;;15.88;10.70;;;;;;;19.96;nan;100416.53;5002478;28;20038;-69
2022/07/29 03:46:08;;;;;;;16.73;10.60;;;;;;;19.87;nan;100418.25;5006255;28;20045;-69
2022/07/29 03:48:36;;;;;;;16.57;11.20;;;;;;;;;;5003766;28;20103;-69
2022/07/29 03:51:02;;;;;;;17.60;11.05;;;;;;;19.69;nan;100379.72;5006815;28;20038;-68
2022/07/29 03:53:28;;;;;;;17.63;12.25;;;;;;;19.69;nan;100473.22;5008102;28;20581;-70
2022/07/29 03:55:57;;;;;;;19.58;11.43;;;;;;;19.76;nan;100440.84;5006178;28;20072;-69
2022/07/29 03:58:26;;;;;;;14.65;11.88;;;;;;;19.71;nan;100414.19;5006188;28;20041;-68
2022/07/29 04:00:52;;;;;;;18.45;11.98;;;;;;;19.80;nan;100446.38;5002889;28;20362;-68
2022/07/29 04:03:18;;;;;;;19.08;10.65;;;;;;;19.79;nan;100431.44;5004983;28;20048;-69
2022/07/29 04:05:43;;;;;;;16.17;10.98;;;;;;;;;;5003413;28;20029;-68
2022/07/29 04:08:09;;;;;;;20.67;11.67;;;;;;;19.91;nan;100498.66;5005874;28;20044;-67
2022/07/29 04:10:35;;;;;;;20.17;11.38;;;;;;;20.00;nan;100434.69;5004929;28;20279;-69
2022/07/29 04:13:00;;;;;;;18.15;11.40;;;;;;;19.88;nan;100419.06;5003244;28;20053;-68
2022/07/29 04:15:28;;;;;;;15.38;10.45;;;;;;;20.06;nan;100481.63;5003663;28;20473;-69
2022/07/29 04:17:53;;;;;;;19.60;11.52;;;;;;;20.18;nan;100425.84;5008239;28;20026;-68
2022/07/29 04:20:19;;;;;;;15.82;11.90;;;;;;;20.18;nan;100349.13;5005464;28;20388;-68
2022/07/29 04:22:44;;;;;;;19.40;11.10;;;;;;;20.25;nan;100388.06;5002556;28;20042;-68
2022/07/29 04:25:10;;;;;;;19.30;11.63;;;;;;;20.31;nan;100438.53;5002504;28;20046;-67
2022/07/29 04:27:35;;;;;;;20.45;11.13;;;;;;;20.37;nan;100426.66;5004163;28;20115;-71
2022/07/29 04:30:01;;;;;;;20.38;11.65;;;;;;;20.39;nan;100405.75;5006267;28;20417;-71
2022/07/29 04:32:26;;;;;;;13.40;10.95;;;;;;;20.48;nan;100411.25;4997151;28;20129;-72
2022/07/29 04:34:52;;;;;;;16.15;11.70;;;;;;;20.51;nan;100429.41;5010797;28;20038;-71
2022/07/29 04:37:18;;;;;;;30.73;12.10;;;;;;;20.60;nan;100434.94;5009500;28;20125;-71
2022/07/29 04:39:43;;;;;;;25.30;11.27;;;;;;;20.67;nan;100439.91;5007296;28;20035;-70
2022/07/29 04:42:08;;;;;;;16.25;10.52;;;;;;;;;;5007163;28;20053;-70
2022/07/29 04:44:34;;;;;;;14.93;11.20;;;;;;;20.82;nan;100410.22;5012746;28;20030;-73
2022/07/29 04:46:59;;;;;;;16.75;10.85;;;;;;;20.90;nan;100433.66;5007536;28;20766;-71
2022/07/29 04:49:25;;;;;;;15.63;10.95;;;;;;;20.96;nan;100466.47;5008919;28;20039;-69
2022/07/29 04:51:51;;;;;;;18.75;11.50;;;;;;;21.09;nan;100420.19;5008267;28;20041;-69
2022/07/29 04:54:16;;;;;;;17.45;10.82;;;;;;;21.13;nan;100511.47;5004857;28;20038;-70
2022/07/29 04:56:42;;;;;;;16.55;11.55;;;;;;;21.21;nan;100412.50;5011101;28;20044;-71
2022/07/29 04:59:07;;;;;;;17.10;10.63;;;;;;;21.23;nan;100442.44;5007929;28;20042;-68
2022/07/29 05:01:33;;;;;;;16.27;11.35;;;;;;;21.35;nan;100443.84;5006716;28;20038;-68
2022/07/29 05:03:58;;;;;;;18.90;11.10;;;;;;;21.47;nan;100440.72;5007903;28;20037;-68
2022/07/29 05:06:24;;;;;;;13.57;10.48;;;;;;;21.56;nan;100438.94;5005531;28;20530;-71
2022/07/29 05:08:49;;;;;;;23.08;11.90;;;;;;;21.66;nan;100423.44;5008841;28;20065;-71
2022/07/29 05:11:15;;;;;;;16.00;11.07;;;;;;;21.76;nan;100437.75;5008151;28;20255;-70
2022/07/29 05:13:40;;;;;;;17.17;11.00;;;;;;;21.87;nan;100455.22;5009376;28;20149;-70
2022/07/29 05:16:07;;;;;;;20.77;10.88;;;;;;;;;;5012745;28;20030;-71
2022/07/29 05:18:33;;;;;;;15.70;10.70;;;;;;;22.03;nan;100453.03;4999330;28;20045;-71
2022/07/29 05:20:58;;;;;;;11.75;10.00;;;;;;;22.10;nan;100434.66;5007561;28;20026;-70
2022/07/29 05:23:23;;;;;;;21.33;10.60;;;;;;;22.18;nan;100468.00;5003087;28;20040;-71
2022/07/29 05:25:49;;;;;;;16.52;10.23;;;;;;;22.26;nan;100449.31;5007136;28;20042;-70
2022/07/29 05:28:15;;;;;;;15.25;10.27;;;;;;;22.31;nan;100453.78;5004405;28;20053;-71
2022/07/29 05:30:41;;;;;;;14.80;9.68;;;;;;;22.35;nan;100481.59;5010108;28;20124;-71
2022/07/29 05:33:06;;;;;;;20.45;10.05;;;;;;;22.39;nan;100463.81;5007883;28;20045;-71
2022/07/29 05:35:32;;;;;;;16.08;10.27;;;;;;;22.45;nan;100469.84;5007878;28;20032;-70
2022/07/29 05:37:57;;;;;;;17.15;9.45;;;;;;;22.48;nan;100459.31;5004526;28;20053;-71
2022/07/29 05:40:22;;;;;;;14.02;9.77;;;;;;;22.54;nan;100467.25;5007231;28;20034;-72
2022/07/29 05:42:48;;;;;;;18.60;9.23;;;;;;;22.63;nan;100458.16;5008832;28;20038;-71
2022/07/29 05:45:13;;;;;;;15.60;9.50;;;;;;;22.70;nan;100434.38;5004481;28;20026;-72
2022/07/29 05:47:39;;;;;;;12.65;9.43;;;;;;;22.80;nan;100470.91;5007492;28;20026;-71
2022/07/29 05:50:05;;;;;;;12.82;9.57;;;;;;;22.89;nan;100458.34;5009205;28;20531;-72
2022/07/29 05:52:30;;;;;;;18.40;9.63;;;;;;;23.09;nan;100451.69;5006611;28;20026;-72
2022/07/29 05:54:56;;;;;;;12.18;9.35;;;;;;;23.21;nan;100461.09;5009687;28;20036;-73
2022/07/29 05:57:23;;;;;;;10.50;9.38;;;;;;;23.34;nan;100454.81;5005354;28;20026;-73
2022/07/29 05:59:49;;;;;;;12.35;9.10;;;;;;;23.43;nan;100447.59;5006076;28;20484;-70
2022/07/29 06:02:16;;;;;;;11.30;9.15;;;;;;;23.51;nan;100472.91;5022262;28;20037;-69
2022/07/29 06:04:41;;;;;;;21.20;10.18;;;;;;;23.65;nan;100462.84;5011820;28;20065;-69
2022/07/29 06:07:07;;;;;;;15.60;9.57;;;;;;;23.71;nan;100444.69;5011052;28;20053;-69
2022/07/29 06:09:33;;;;;;;10.77;8.90;;;;;;;23.84;nan;100508.34;5008262;28;20034;-68
2022/07/29 06:11:59;;;;;;;10.32;8.55;;;;;;;23.97;nan;100464.41;5009125;28;20045;-68
2022/07/29 06:14:25;;;;;;;11.23;9.10;;;;;;;24.09;nan;100473.78;5008648;28;20514;-68
2022/07/29 06:16:50;;;;;;;19.80;8.85;;;;;;;24.15;nan;100469.81;4992764;28;20033;-68
2022/07/29 06:19:16;;;;;;;14.55;8.65;;;;;;;24.22;nan;100463.97;5006726;28;20030;-68
2022/07/29 06:21:43;;;;;;;16.25;9.10;;;;;;;24.26;nan;100438.81;5010706;28;20033;-73
2022/07/29 06:24:10;;;;;;;16.58;8.73;;;;;;;24.33;nan;100455.28;5002948;28;20246;-73
2022/07/29 06:26:35;;;;;;;11.27;9.02;;;;;;;24.41;nan;100437.53;5022956;28;20049;-73
2022/07/29 06:29:00;;;;;;;12.63;8.90;;;;;;;24.51;nan;100449.91;5004717;28;20022;-74
2022/07/29 06:31:26;;;;;;;16.08;9.20;;;;;;;24.66;nan;100462.88;5003940;28;20057;-73
2022/07/29 06:33:51;;;;;;;18.20;9.00;;;;;;;24.76;nan;100472.56;5007993;28;20052;-73
2022/07/29 06:36:18;;;;;;;12.55;8.48;;;;;;;24.76;nan;100521.03;5005744;28;20030;-73
2022/07/29 06:38:43;;;;;;;10.70;8.60;;;;;;;24.87;nan;100516.91;5005485;28;20449;-72
2022/07/29 06:41:12;;;;;;;11.88;8.40;;;;;;;24.95;nan;100489.19;5009007;28;20116;-69
2022/07/29 06:43:41;;;;;;;11.07;8.27;;;;;;;25.05;nan;100463.81;5001133;28;20362;-69
2022/07/29 06:46:14;;;;;;;17.85;8.82;;;;;;;25.04;nan;100397.53;5003421;28;20139;-68
2022/07/29 06:48:42;;;;;;;12.38;8.32;;;;;;;25.22;nan;100465.69;5009443;28;20026;-68
2022/07/29 06:51:08;;;;;;;16.17;7.97;;;;;;;25.29;nan;100533.38;5009062;28;20065;-69
2022/07/29 06:53:34;;;;;;;14.52;7.68;;;;;;;25.51;nan;100475.72;5008590;28;20519;-75
2022/07/29 06:56:00;;;;;;;10.57;7.47;;;;;;;25.56;nan;100459.38;5005304;28;20022;-74
2022/07/29 06:58:27;;;;;;;9.40;7.28;;;;;;;25.62;nan;100493.13;5006326;28;20068;-75
2022/07/29 07:00:52;;;;;;;11.40;7.30;;;;;;;25.72;nan;100485.81;5008297;28;20026;-73
2022/07/29 07:03:18;;;;;;;12.80;6.85;;;;;;;25.79;nan;100486.88;5009481;28;20033;-69
2022/07/29 07:05:45;;;;;;;9.32;6.55;;;;;;;25.87;nan;100472.56;5006728;28;20042;-73
2022/07/29 07:08:12;;;;;;;12.82;6.20;;;;;;;25.95;nan;100516.78;5008638;28;20037;-74
2022/07/29 07:10:37;;;;;;;10.30;6.05;;;;;;;26.04;nan;100485.16;5005451;28;20392;-73
2022/07/29 07:13:04;;;;;;;16.77;5.90;;;;;;;26.10;nan;100480.38;5008427;28;20383;-75
2022/07/29 07:15:30;;;;;;;9.73;5.60;;;;;;;26.12;nan;100424.13;5005924;28;20031;-69
2022/07/29 07:17:56;;;;;;;7.30;5.30;;;;;;;26.20;nan;100446.81;4996745;28;20026;-74
2022/07/29 07:20:22;;;;;;;8.95;5.85;;;;;;;26.27;nan;100445.16;5005484;28;20037;-74
2022/07/29 07:22:47;;;;;;;8.70;6.13;;;;;;;26.33;nan;100416.03;5009396;28;20116;-69
2022/07/29 07:25:13;;;;;;;10.30;6.30;;;;;;;26.45;nan;100462.00;5009572;28;20553;-74
2022/07/29 07:27:39;;;;;;;10.35;5.93;;;;;;;26.57;nan;100442.38;5007598;28;20030;-70
2022/07/29 07:30:05;;;;;;;13.00;5.97;;;;;;;26.73;nan;100462.25;5004910;28;20384;-69
2022/07/29 07:32:31;;;;;;;11.57;6.47;;;;;;;26.77;nan;100435.38;5007415;28;20042;-70
2022/07/29 07:34:57;;;;;;;11.70;6.32;;;;;;;26.99;nan;100460.44;5008435;28;20023;-69
2022/07/29 07:37:24;;;;;;;8.15;5.82;;;;;;;27.00;nan;100446.56;5004719;28;20071;-69
2022/07/29 07:39:50;;;;;;;9.50;5.32;;;;;;;27.08;nan;100469.22;5003755;28;20374;-69
2022/07/29 07:42:16;;;;;;;10.55;6.03;;;;;;;27.15;nan;100437.03;5005634;28;20124;-73
2022/07/29 07:44:41;;;;;;;8.65;6.30;;;;;;;27.25;nan;100462.84;5021135;28;20507;-73
2022/07/29 07:47:06;;;;;;;8.80;5.60;;;;;;;27.32;nan;100450.38;5004357;28;20413;-73
2022/07/29 07:49:32;;;;;;;8.60;5.82;;;;;;;27.41;nan;100444.06;5006185;28;20116;-71
2022/07/29 07:51:57;;;;;;;15.73;6.28;;;;;;;27.48;nan;100447.00;5007278;28;20038;-70
2022/07/29 07:54:23;;;;;;;12.60;6.28;;;;;;;27.49;nan;100411.50;5005836;28;20034;-73
2022/07/29 07:56:49;;;;;;;10.68;6.03;;;;;;;27.58;nan;100520.38;5000172;28;20037;-73
2022/07/29 07:59:15;;;;;;;7.28;5.95;;;;;;;27.61;nan;100459.41;5008281;28;20029;-73
2022/07/29 08:01:40;;;;;;;6.68;5.90;;;;;;;27.66;nan;100467.28;5008315;28;20149;-73
2022/07/29 08:04:07;;;;;;;9.25;5.97;;;;;;;27.71;nan;100480.59;5014030;28;20186;-73
2022/07/29 08:06:34;;;;;;;9.88;5.95;;;;;;;27.78;nan;100466.50;5012299;28;20484;-72
2022/07/29 08:09:00;;;;;;;10.63;6.00;;;;;;;27.79;nan;100470.78;5006728;28;20033;-73
2022/07/29 08:11:25;;;;;;;10.07;5.32;;;;;;;27.81;nan;100479.34;5010060;28;20029;-73
2022/07/29 08:13:51;;;;;;;12.43;5.70;;;;;;;27.80;nan;100458.84;5008605;28;20038;-72
2022/07/29 08:16:18;;;;;;;13.35;6.18;;;;;;;27.85;nan;100484.91;5013205;28;20208;-70
2022/07/29 08:18:45;;;;;;;7.72;5.68;;;;;;;27.94;nan;100482.84;5007895;28;20030;-73
2022/07/29 08:21:12;;;;;;;7.80;5.55;;;;;;;27.98;nan;100511.59;5010883;28;20393;-73
2022/07/29 08:23:38;;;;;;;9.88;5.60;;;;;;;28.05;nan;100435.25;5009109;28;20530;-73
2022/07/29 08:26:10;;;;;;;9.82;5.57;;;;;;;28.15;nan;100488.91;5013900;28;20120;-73
2022/07/29 08:28:37;;;;;;;9.25;5.20;;;;;;;28.13;nan;100461.38;5009869;28;20041;-73
2022/07/29 08:31:04;;;;;;;10.40;5.30;;;;;;;28.29;nan;100499.38;5007088;28;20061;-73
2022/07/29 08:33:30;;;;;;;7.57;5.53;;;;;;;28.32;nan;100481.66;5006706;28;20034;-72
2022/07/29 08:35:55;;;;;;;9.00;5.68;;;;;;;28.38;nan;100497.31;5010944;28;20460;-72
2022/07/29 08:38:21;;;;;;;8.52;5.30;;;;;;;28.43;nan;100431.28;5010298;28;20033;-72
2022/07/29 08:40:46;;;;;;;7.53;5.78;;;;;;;28.52;nan;100471.81;5003770;28;20037;-73
2022/07/29 08:43:12;;;;;;;7.15;5.95;;;;;;;28.56;nan;100503.25;5009698;28;20030;-72
2022/07/29 08:45:46;;;;;;;9.60;5.40;;;;;;;28.62;nan;100463.97;5011127;28;20108;-73
2022/07/29 08:48:13;;;;;;;6.18;4.97;;;;;;;28.67;nan;100519.84;5009896;28;20030;-70
2022/07/29 08:50:40;;;;;;;11.98;5.18;;;;;;;28.82;nan;100480.38;5009585;28;20088;-70
2022/07/29 08:53:10;;;;;;;6.50;5.57;;;;;;;28.93;nan;100477.94;5008995;28;20038;-68
2022/07/29 08:55:38;;;;;;;9.68;5.65;;;;;;;28.99;nan;100474.63;5007518;28;20041;-68
2022/07/29 08:58:05;;;;;;;7.57;5.13;;;;;;;29.00;nan;100446.38;5010831;28;20030;-69
2022/07/29 09:00:31;;;;;;;10.52;5.13;;;;;;;29.05;nan;100477.88;5011266;28;20026;-69
2022/07/29 09:02:58;;;;;;;7.45;5.60;;;;;;;29.18;nan;100482.09;5010796;28;20041;-69
2022/07/29 09:05:26;;;;;;;8.27;5.90;;;;;;;29.25;nan;100479.56;5008319;28;20117;-69
2022/07/29 09:07:51;;;;;;;9.98;5.95;;;;;;;29.35;nan;100482.91;5007753;28;20030;-69
2022/07/29 09:10:17;;;;;;;5.65;4.97;;;;;;;29.42;nan;100480.38;5008048;28;20053;-69
2022/07/29 09:12:42;;;;;;;6.00;4.97;;;;;;;29.57;nan;100525.72;5007128;28;20472;-69
2022/07/29 09:15:08;;;;;;;9.48;5.25;;;;;;;29.67;nan;100462.00;5004897;28;20100;-68
2022/07/29 09:18:00;;;;;;;6.97;5.70;;;;;;;29.73;nan;100465.22;5005106;28;20392;-68
2022/07/29 09:21:57;;;;;;;17.65;5.57;;;;;;;29.77;nan;100450.59;5007015;28;20540;-68
2022/07/29 09:23:13;;;;;;;7.63;5.38;;;;;;;29.85;nan;100443.38;5006928;28;20552;-68
2022/07/29 09:25:40;;;;;;;8.70;5.43;;;;;;;29.90;nan;100451.25;5008770;28;20046;-73
2022/07/29 09:28:13;;;;;;;9.50;5.63;;;;;;;29.92;nan;100450.91;5009397;28;20038;-73
2022/07/29 09:30:52;;;;;;;8.95;4.80;;;;;;;30.04;nan;100464.34;5008723;28;20033;-69
2022/07/29 09:33:17;;;;;;;8.18;5.03;;;;;;;30.10;nan;100457.50;5008814;28;20038;-70
2022/07/29 09:35:43;;;;;;;8.32;5.20;;;;;;;30.13;nan;100407.13;5008478;28;20034;-68
2022/07/29 09:38:14;;;;;;;8.60;4.97;;;;;;;30.14;nan;100427.69;5006461;28;20058;-72
2022/07/29 09:40:40;;;;;;;8.73;4.93;;;;;;;30.23;nan;100450.78;5009864;28;20038;-73
2022/07/29 09:43:13;;;;;;;5.65;5.05;;;;;;;30.17;nan;100441.38;5008644;28;20045;-72
2022/07/29 09:45:39;;;;;;;10.00;5.10;;;;;;;30.06;nan;100421.34;5011786;28;20484;-73
2022/07/29 09:48:17;;;;;;;8.05;4.88;;;;;;;29.99;nan;100434.78;5007481;28;20477;-73
2022/07/29 09:50:44;;;;;;;9.32;5.28;;;;;;;30.04;nan;100429.06;5018123;28;21519;-73
2022/07/29 09:53:11;;;;;;;8.98;4.90;;;;;;;30.00;nan;100425.47;5005093;28;20403;-73
2022/07/29 09:55:50;;;;;;;9.40;5.00;;;;;;;29.96;nan;100425.41;5009258;28;20034;-72
2022/07/29 09:58:22;;;;;;;8.50;4.95;;;;;;;29.86;nan;100431.41;5008077;28;20041;-73
2022/07/29 10:00:49;;;;;;;5.60;4.40;;;;;;;29.89;nan;100415.19;5007159;28;20037;-74
2022/07/29 10:03:17;;;;;;;7.13;4.60;;;;;;;30.01;nan;100425.13;5005350;28;20034;-69
2022/07/29 10:05:44;;;;;;;7.78;4.95;;;;;;;30.16;nan;100419.97;5007605;28;20034;-70
2022/07/29 10:08:12;;;;;;;6.88;4.47;;;;;;;30.28;nan;100417.94;5010634;28;20448;-67
2022/07/29 10:10:42;;;;;;;9.30;5.10;;;;;;;30.41;nan;100412.34;5001025;28;20034;-67
2022/07/29 10:13:13;;;;;;;9.57;4.88;;;;;;;30.45;nan;100399.63;5004636;28;20061;-68
2022/07/29 10:15:43;;;;;;;9.85;5.35;;;;;;;30.49;nan;100398.53;5004221;28;20447;-67
2022/07/29 10:18:10;;;;;;;7.82;4.72;;;;;;;30.53;nan;100388.53;5010922;28;20057;-73
2022/07/29 10:20:36;;;;;;;5.55;4.70;;;;;;;30.58;nan;100381.22;5010397;28;20113;-67
2022/07/29 10:23:02;;;;;;;6.82;4.60;;;;;;;30.65;nan;100384.84;5010220;28;20121;-67
2022/07/29 10:25:28;;;;;;;8.48;4.75;;;;;;;30.77;nan;100386.63;5003964;28;20042;-67
2022/07/29 10:27:54;;;;;;;10.40;5.40;;;;;;;30.89;nan;100397.34;5004060;28;20109;-67
2022/07/29 10:30:23;;;;;;;14.27;5.57;;;;;;;30.97;nan;100381.13;5005441;28;20030;-68
2022/07/29 10:32:54;;;;;;;10.57;4.90;;;;;;;31.07;nan;100399.56;5003199;28;20041;-66
2022/07/29 10:35:34;;;;;;;11.07;5.07;;;;;;;31.20;nan;100397.41;5001175;28;20492;-66
2022/07/29 10:38:00;;;;;;;6.68;4.90;;;;;;;31.20;nan;100400.13;5004170;28;20060;-72
2022/07/29 10:43:35;;;;;;;7.20;4.10;;;;;;;31.35;nan;100377.44;5002862;28;20034;-73
2022/07/29 10:46:02;;;;;;;6.10;3.92;;;;;;;31.37;nan;100373.22;5003038;28;20034;-72
2022/07/29 10:48:27;;;;;;;6.05;4.35;;;;;;;31.48;nan;100389.72;5007148;28;20033;-72
2022/07/29 10:50:55;;;;;;;7.70;4.65;;;;;;;31.61;nan;100365.78;5006007;28;20526;-73
2022/07/29 10:53:21;;;;;;;7.00;4.15;;;;;;;31.66;nan;100342.91;5004931;28;20084;-72
2022/07/29 10:55:49;;;;;;;7.43;4.10;;;;;;;31.76;nan;100331.34;5004916;28;20040;-73
2022/07/29 10:58:15;;;;;;;8.77;4.10;;;;;;;31.88;nan;100365.75;5006846;28;20464;-72
2022/07/29 11:00:40;;;;;;;5.32;4.00;;;;;;;31.94;nan;100348.69;5006693;28;20048;-73
2022/07/29 11:03:06;;;;;;;9.35;4.68;;;;;;;31.94;nan;100339.72;5005938;28;20042;-72
2022/07/29 11:05:52;;;;;;;9.82;4.18;;;;;;;32.03;nan;100364.78;5005990;28;20529;-72
2022/07/29 11:08:22;;;;;;;8.98;4.40;;;;;;;32.10;nan;100339.56;5003011;28;20026;-71
2022/07/29 11:10:53;;;;;;;4.53;4.13;;;;;;;32.12;nan;100327.13;5005029;28;20100;-72
2022/07/29 11:13:43;;;;;;;6.78;3.97;;;;;;;32.31;nan;100347.19;5007673;28;20049;-72
2022/07/29 11:16:09;;;;;;;5.80;3.97;;;;;;;32.40;nan;100334.03;5006989;28;20030;-72
2022/07/29 11:18:34;;;;;;;6.90;4.40;;;;;;;32.46;nan;100343.41;5006667;28;20361;-72
2022/07/29 11:21:00;;;;;;;6.47;4.30;;;;;;;32.48;nan;100338.38;5008914;28;20477;-73
2022/07/29 11:23:30;;;;;;;5.03;4.30;;;;;;;32.52;nan;100346.63;5005642;28;20549;-72
2022/07/29 11:26:22;;;;;;;6.68;4.10;;;;;;;32.58;nan;100336.94;5005482;28;20077;-72
2022/07/29 11:28:57;;;;;;;4.80;4.20;;;;;;;32.55;nan;100326.78;5005814;28;20038;-73
2022/07/29 11:31:41;;;;;;;4.60;4.20;;;;;;;32.69;nan;100326.13;5007417;28;20037;-73
2022/07/29 11:34:26;;;;;;;9.93;4.10;;;;;;;32.69;nan;100286.00;5007365;28;20041;-72
2022/07/29 11:37:06;;;;;;;5.68;4.25;;;;;;;32.71;nan;100315.59;5007647;28;20038;-72
2022/07/29 11:39:34;;;;;;;5.47;4.28;;;;;;;32.69;nan;100317.97;5001099;28;20080;-67
2022/07/29 11:42:24;;;;;;;4.90;4.40;;;;;;;32.64;nan;100319.09;5009886;28;20029;-68
2022/07/29 11:45:10;;;;;;;4.90;4.40;;;;;;;32.77;nan;100300.47;5009058;28;20064;-66